Terminal Aerodrome Forecast
Issued by NWS Cleveland, OH

Home | Current Version | Previous Version | Graphics & Text | Print | Product List | Glossary On
Versions: 1 2 3 4 5 6 7 8 9 10 11 12 13 14 15 16 17 18 19 20 21
000
FTUS41 KCLE 281100
TAFMFD
TAF
KMFD 281120Z 2812/0112 15003KT P6SM BKN200
     FM281600 13005KT P6SM BKN100
     FM010100 11005KT P6SM SCT025 OVC040
     FM010500 13005KT 2SM -SN BR SCT012 OVC020
     FM010900 18005KT 3/4SM -SN BR OVC006=

USA.gov is the U.S. government's official web portal to all federal, state and local government web resources and services.